^^
Marion, Virginia Banner
 

Adwolf, VA. Station Historical Data
[ Providing Data Since 6/07/2007 ]
Station Historical Data
Daily Summary for December 07, 2017 Units:  Metric    English   Both
« Previous Day
Next Day »
Daily Weekly Monthly Yearly Custom
  High: Low: Average:
Temperature: 5.9 °C -1.6 °C 0.9 °C
Dew Point: -2.2 °C -5.3 °C -3.8 °C
Humidity: 83% 47% 71%
Wind Speed: 20.4km/h 0km/h 6.8km/h
Wind Gust: 20.4km/h - -
Wind- - WSW
Pressure: 1023.9 hPa 1019.9 hPa -
Precipitation: 0 mm    
Historical Graphs
 
 
Tabular Data for December 07, 2017
Time Temperature Dew Point Pressure Wind Wind Speed Wind Gust Humidity Rainfall Rate (Hourly) solar Conditions
00:03 0.1 °C -3.6 °C 1022.9 hPa WSW 7.4 km/h 7.4 km/h 76% 0 mm WeatherDisplay:10.37 W/m2 CLR
00:05 0.1 °C -3.6 °C 1022.9 hPa SW 7.4 km/h 7.4 km/h 76% 0 mm WeatherDisplay:10.37 W/m2 RA
00:10 0.1 °C -3.7 °C 1022.9 hPa SW 5.6 km/h 5.6 km/h 76% 0 mm WeatherDisplay:10.37 W/m2 RA
00:15 0.1 °C -3.7 °C 1022.9 hPa SW 5.6 km/h 5.6 km/h 76% 0 mm WeatherDisplay:10.37 W/m2 CLR
00:20 0 °C -3.6 °C 1022.9 hPa SW 6.4 km/h 6.4 km/h 77% 0 mm WeatherDisplay:10.37 W/m2 CLR
00:25 0 °C -3.7 °C 1022.9 hPa SW 6.4 km/h 6.4 km/h 76% 0 mm WeatherDisplay:10.37 W/m2 CLR
00:30 0 °C -3.7 °C 1022.9 hPa SW 5.6 km/h 5.6 km/h 76% 0 mm WeatherDisplay:10.37 W/m2 CLR
00:35 0 °C -3.9 °C 1022.9 hPa WSW 8 km/h 8 km/h 75% 0 mm WeatherDisplay:10.37 W/m2 CLR
00:40 0.1 °C -4.1 °C 1022.9 hPa SW 8 km/h 8 km/h 74% 0 mm WeatherDisplay:10.37 W/m2 CLR
00:45 0.1 °C -4 °C 1022.9 hPa WSW 7.4 km/h 7.4 km/h 74% 0 mm WeatherDisplay:10.37 W/m2 CLR
00:50 0.1 °C -4 °C 1022.9 hPa SW 5.6 km/h 5.6 km/h 74% 0 mm WeatherDisplay:10.37 W/m2 CLR
00:55 0.1 °C -4.1 °C 1022.6 hPa WSW 5.6 km/h 5.6 km/h 74% 0 mm WeatherDisplay:10.37 W/m2 CLR
01:00 0 °C -3.9 °C 1022.6 hPa SW 5.6 km/h 5.6 km/h 75% 0 mm WeatherDisplay:10.37 W/m2 CLR
01:05 0 °C -4.1 °C 1022.6 hPa WSW 5.6 km/h 5.6 km/h 74% 0 mm WeatherDisplay:10.37 W/m2 CLR
01:10 0 °C -3.9 °C 1022.6 hPa SW 5.6 km/h 5.6 km/h 75% 0 mm WeatherDisplay:10.37 W/m2 CLR
01:15 0 °C -3.9 °C 1022.6 hPa SW 8 km/h 8 km/h 75% 0 mm WeatherDisplay:10.37 W/m2 CLR
01:20 0 °C -3.9 °C 1022.6 hPa SSW 6.4 km/h 6.4 km/h 75% 0 mm WeatherDisplay:10.37 W/m2 CLR
01:25 0 °C -3.9 °C 1022.6 hPa SW 5.6 km/h 5.6 km/h 75% 0 mm WeatherDisplay:10.37 W/m2 CLR
01:30 0 °C -3.9 °C 1022.6 hPa SW 5.6 km/h 5.6 km/h 75% 0 mm WeatherDisplay:10.37 W/m2 CLR
01:35 -0.1 °C -3.9 °C 1022.6 hPa SW 5.6 km/h 5.6 km/h 75% 0 mm WeatherDisplay:10.37 W/m2 CLR
01:40 -0.1 °C -3.9 °C 1022.9 hPa SW 5.6 km/h 5.6 km/h 75% 0 mm WeatherDisplay:10.37 W/m2 CLR
01:45 -0.1 °C -4 °C 1022.6 hPa WSW 7.4 km/h 7.4 km/h 75% 0 mm WeatherDisplay:10.37 W/m2 CLR
01:50 -0.1 °C -4 °C 1022.6 hPa SSW 7.4 km/h 7.4 km/h 75% 0 mm WeatherDisplay:10.37 W/m2 CLR
01:55 -0.2 °C -4.1 °C 1022.6 hPa WSW 8 km/h 8 km/h 75% 0 mm WeatherDisplay:10.37 W/m2 CLR
02:00 -0.2 °C -4.1 °C 1022.6 hPa SW 7.4 km/h 7.4 km/h 75% 0 mm WeatherDisplay:10.37 W/m2 CLR
02:05 -0.3 °C -4 °C 1022.9 hPa WSW 7.4 km/h 7.4 km/h 76% 0 mm WeatherDisplay:10.37 W/m2 CLR
02:10 -0.3 °C -4.1 °C 1022.6 hPa SW 5.6 km/h 5.6 km/h 76% 0 mm WeatherDisplay:10.37 W/m2 CLR
02:15 -0.3 °C -4.1 °C 1022.6 hPa SSW 5.6 km/h 5.6 km/h 76% 0 mm WeatherDisplay:10.37 W/m2 CLR
02:20 -0.4 °C -3.9 °C 1022.9 hPa SW 5.6 km/h 5.6 km/h 77% 0 mm WeatherDisplay:10.37 W/m2 CLR
02:25 -0.4 °C -3.8 °C 1022.9 hPa SW 5.6 km/h 5.6 km/h 78% 0 mm WeatherDisplay:10.37 W/m2 CLR
02:30 -0.5 °C -4.1 °C 1022.9 hPa SW 5.6 km/h 5.6 km/h 77% 0 mm WeatherDisplay:10.37 W/m2 CLR
02:35 -0.5 °C -3.9 °C 1022.9 hPa West 5.6 km/h 5.6 km/h 78% 0 mm WeatherDisplay:10.37 W/m2 CLR
02:40 -0.6 °C -3.9 °C 1022.9 hPa WSW 5.6 km/h 5.6 km/h 78% 0 mm WeatherDisplay:10.37 W/m2 CLR
02:45 -0.6 °C -3.9 °C 1022.9 hPa WSW 5.6 km/h 5.6 km/h 78% 0 mm WeatherDisplay:10.37 W/m2 CLR
02:50 -0.6 °C -4 °C 1022.9 hPa WSW 3.7 km/h 3.7 km/h 78% 0 mm WeatherDisplay:10.37 W/m2 CLR
02:55 -0.7 °C -4.1 °C 1022.9 hPa WSW 3.7 km/h 3.7 km/h 78% 0 mm WeatherDisplay:10.37 W/m2 CLR
03:00 -0.8 °C -3.9 °C 1022.9 hPa WSW 3.7 km/h 3.7 km/h 79% 0 mm WeatherDisplay:10.37 W/m2 CLR
03:05 -0.8 °C -3.9 °C 1022.9 hPa WSW 4.8 km/h 4.8 km/h 79% 0 mm WeatherDisplay:10.37 W/m2 CLR
03:10 -0.9 °C -4.1 °C 1022.9 hPa WSW 3.7 km/h 3.7 km/h 79% 0 mm WeatherDisplay:10.37 W/m2 CLR
03:15 -1.1 °C -4.1 °C 1022.9 hPa WSW 4.8 km/h 4.8 km/h 80% 0 mm WeatherDisplay:10.37 W/m2 CLR
03:20 -1.1 °C -4.1 °C 1022.9 hPa WSW 3.7 km/h 3.7 km/h 80% 0 mm WeatherDisplay:10.37 W/m2 CLR
03:25 -1.2 °C -4.1 °C 1022.9 hPa WSW 1.9 km/h 1.9 km/h 81% 0 mm WeatherDisplay:10.37 W/m2 CLR
03:30 -1.3 °C -4.2 °C 1022.6 hPa WSW 1.9 km/h 1.9 km/h 81% 0 mm WeatherDisplay:10.37 W/m2 CLR
03:35 -1.3 °C -4.2 °C 1022.9 hPa WSW 1.9 km/h 1.9 km/h 81% 0 mm WeatherDisplay:10.37 W/m2 CLR
03:40 -1.4 °C -4.1 °C 1022.9 hPa WSW 1.9 km/h 1.9 km/h 82% 0 mm WeatherDisplay:10.37 W/m2 CLR
03:45 -1.4 °C -4.1 °C 1022.9 hPa WSW 3.7 km/h 3.7 km/h 82% 0 mm WeatherDisplay:10.37 W/m2 CLR
03:50 -1.4 °C -4.1 °C 1022.6 hPa WSW 3.7 km/h 3.7 km/h 82% 0 mm WeatherDisplay:10.37 W/m2 CLR
03:55 -1.4 °C -4.1 °C 1022.9 hPa WSW 3.2 km/h 3.2 km/h 82% 0 mm WeatherDisplay:10.37 W/m2 CLR
04:00 -1.4 °C -4.1 °C 1022.6 hPa WSW 3.7 km/h 3.7 km/h 82% 0 mm WeatherDisplay:10.37 W/m2 CLR
04:05 -1.4 °C -4.3 °C 1022.6 hPa WSW 3.7 km/h 3.7 km/h 81% 0 mm WeatherDisplay:10.37 W/m2 CLR
04:10 -1.5 °C -4.2 °C 1022.6 hPa WSW 1.6 km/h   82% 0 mm WeatherDisplay:10.37 W/m2 CLR
04:15 -1.5 °C -4.2 °C 1022.6 hPa Calm     82% 0 mm WeatherDisplay:10.37 W/m2 CLR
04:20 -1.5 °C -4.2 °C 1022.6 hPa SW 6.4 km/h   82% 0 mm WeatherDisplay:10.37 W/m2 CLR
04:25 -1.5 °C -4.2 °C 1022.6 hPa SW 3.7 km/h 3.7 km/h 82% 0 mm WeatherDisplay:10.37 W/m2 CLR
04:30 -1.5 °C -4.2 °C 1022.6 hPa SW 5.6 km/h 5.6 km/h 82% 0 mm WeatherDisplay:10.37 W/m2 CLR
04:35 -1.6 °C -4.2 °C 1022.6 hPa SW 5.6 km/h 5.6 km/h 82% 0 mm WeatherDisplay:10.37 W/m2 CLR
04:40 -1.6 °C -4.2 °C 1022.6 hPa SW 3.7 km/h 3.7 km/h 82% 0 mm WeatherDisplay:10.37 W/m2 CLR
04:45 -1.6 °C -4.2 °C 1022.6 hPa SW 3.7 km/h 3.7 km/h 82% 0 mm WeatherDisplay:10.37 W/m2 CLR
04:50 -1.6 °C -4.2 °C 1022.6 hPa SW 5.6 km/h 5.6 km/h 82% 0 mm WeatherDisplay:10.37 W/m2 CLR
04:55 -1.6 °C -4.2 °C 1022.6 hPa WSW 6.4 km/h 6.4 km/h 82% 0 mm WeatherDisplay:10.37 W/m2 CLR
05:00 -1.5 °C -4.3 °C 1022.6 hPa SW 5.6 km/h 5.6 km/h 81% 0 mm WeatherDisplay:10.37 W/m2 CLR
05:05 -1.5 °C -4.3 °C 1022.6 hPa SW 5.6 km/h 5.6 km/h 81% 0 mm WeatherDisplay:10.37 W/m2 CLR
05:10 -1.5 °C -4.2 °C 1022.6 hPa SW 5.6 km/h 5.6 km/h 82% 0 mm WeatherDisplay:10.37 W/m2 CLR
05:15 -1.4 °C -4.3 °C 1022.9 hPa SW 5.6 km/h 5.6 km/h 81% 0 mm WeatherDisplay:10.37 W/m2 CLR
05:20 -1.4 °C -4.3 °C 1022.6 hPa SW 5.6 km/h 5.6 km/h 81% 0 mm WeatherDisplay:10.37 W/m2 CLR
05:25 -1.4 °C -4.3 °C 1022.6 hPa SW 5.6 km/h 5.6 km/h 81% 0 mm WeatherDisplay:10.37 W/m2 SCT
05:30 -1.4 °C -4.2 °C 1022.6 hPa SW 3.7 km/h 3.7 km/h 81% 0 mm WeatherDisplay:10.37 W/m2 SCT
05:35 -1.4 °C -4.2 °C 1022.6 hPa SW 3.7 km/h 3.7 km/h 81% 0 mm WeatherDisplay:10.37 W/m2 SCT
05:40 -1.4 °C -4.2 °C 1022.9 hPa SW 3.7 km/h 3.7 km/h 81% 0 mm WeatherDisplay:10.37 W/m2 SCT
05:45 -1.3 °C -4.2 °C 1022.9 hPa SW 5.6 km/h 5.6 km/h 81% 0 mm WeatherDisplay:10.37 W/m2 SCT
05:50 -1.3 °C -4.2 °C 1022.9 hPa West 5.6 km/h 5.6 km/h 81% 0 mm WeatherDisplay:10.37 W/m2 SCT
05:55 -1.3 °C -4.1 °C 1022.9 hPa WSW 5.6 km/h 5.6 km/h 81% 0 mm WeatherDisplay:10.37 W/m2 BKN
06:00 -1.3 °C -4.1 °C 1022.9 hPa WSW 3.7 km/h 3.7 km/h 81% 0 mm WeatherDisplay:10.37 W/m2 BKN
06:05 -1.3 °C -4.3 °C 1022.6 hPa West 3.7 km/h 3.7 km/h 80% 0 mm WeatherDisplay:10.37 W/m2 BKN
06:10 -1.3 °C -4.3 °C 1022.6 hPa SW 6.4 km/h 6.4 km/h 80% 0 mm WeatherDisplay:10.37 W/m2 BKN
06:15 -1.3 °C -4.3 °C 1022.6 hPa WSW 5.6 km/h 5.6 km/h 80% 0 mm WeatherDisplay:10.37 W/m2 BKN
06:20 -1.3 °C -4.1 °C 1022.6 hPa SW 5.6 km/h 5.6 km/h 81% 0 mm WeatherDisplay:10.37 W/m2 OVC
06:25 -1.3 °C -4.1 °C 1022.6 hPa SW 3.7 km/h 3.7 km/h 81% 0 mm WeatherDisplay:10.37 W/m2 BKN
06:30 -1.3 °C -4.1 °C 1022.9 hPa WSW 3.7 km/h 3.7 km/h 81% 0 mm WeatherDisplay:10.37 W/m2 BKN
06:35 -1.3 °C -4.3 °C 1022.6 hPa SW 5.6 km/h 5.6 km/h 80% 0 mm WeatherDisplay:10.37 W/m2 BKN
06:40 -1.2 °C -4.2 °C 1022.6 hPa SW 5.6 km/h 5.6 km/h 80% 0 mm WeatherDisplay:10.37 W/m2 BKN
06:41 -1.2 °C -4.2 °C 1022.6 hPa WSW 5.6 km/h 5.6 km/h 80% 0 mm WeatherDisplay:10.37 W/m2 BKN
06:46 -1.2 °C -4.2 °C 1022.6 hPa WSW 5.6 km/h 5.6 km/h 80% 0 mm WeatherDisplay:10.37 W/m2 BKN
06:51 -1.2 °C -4.2 °C 1022.6 hPa WSW 5.6 km/h 5.6 km/h 80% 0 mm WeatherDisplay:10.37 W/m2 BKN
06:56 -1.2 °C -4.2 °C 1022.6 hPa WSW 3.7 km/h 3.7 km/h 80% 0 mm WeatherDisplay:10.37 W/m2 BKN
07:01 -1.2 °C -4.1 °C 1022.6 hPa WSW 1.9 km/h 1.9 km/h 81% 0 mm WeatherDisplay:10.37 W/m2 BKN
07:06 -1.2 °C -4.2 °C 1022.6 hPa WSW 3.7 km/h 3.7 km/h 80% 0 mm WeatherDisplay:10.37 W/m2 BKN
07:11 -1.3 °C -4.1 °C 1022.9 hPa WSW 3.2 km/h 3.2 km/h 81% 0 mm WeatherDisplay:10.37 W/m2 BKN
07:16 -1.3 °C -4.2 °C 1022.9 hPa SW 3.7 km/h 3.7 km/h 81% 0 mm WeatherDisplay:10.37 W/m2 BKN
07:21 -1.4 °C -4.3 °C 1022.9 hPa SW 3.7 km/h 3.7 km/h 81% 0 mm WeatherDisplay:10.37 W/m2 BKN
07:26 -1.5 °C -4.2 °C 1022.9 hPa SW 3.7 km/h 3.7 km/h 82% 0 mm WeatherDisplay:10.37 W/m2 BKN
07:31 -1.5 °C -4.2 °C 1022.9 hPa SW 3.7 km/h 3.7 km/h 82% 0 mm WeatherDisplay:10.37 W/m2 BKN
07:36 -1.6 °C -4.2 °C 1022.9 hPa SW 1.9 km/h 1.9 km/h 82% 0 mm WeatherDisplay:10.37 W/m2 BKN
07:41 -1.6 °C -4.3 °C 1022.9 hPa SW 3.7 km/h 3.7 km/h 82% 0 mm WeatherDisplay:10.37 W/m2 BKN
07:46 -1.6 °C -4.1 °C 1022.9 hPa WSW 3.7 km/h 3.7 km/h 83% 0 mm WeatherDisplay:10.37 W/m2 BKN
07:51 -1.5 °C -4.2 °C 1022.9 hPa SSW 5.6 km/h 5.6 km/h 82% 0 mm WeatherDisplay:10.37 W/m2 BKN
07:56 -1.4 °C -4.1 °C 1022.9 hPa SSW 5.6 km/h 5.6 km/h 82% 0 mm WeatherDisplay:10.37 W/m2 BKN
08:02 -1.3 °C -4 °C 1023.2 hPa SW 3.7 km/h 3.7 km/h 82% 0 mm WeatherDisplay:10.37 W/m2 BKN
08:07 -1.3 °C -3.9 °C 1023.2 hPa SW 3.7 km/h 3.7 km/h 82% 0 mm WeatherDisplay:10.37 W/m2 BKN
08:12 -1.2 °C -3.9 °C 1023.2 hPa SW 3.7 km/h 3.7 km/h 82% 0 mm WeatherDisplay:10.37 W/m2 BKN
08:17 -1.2 °C -3.8 °C 1023.2 hPa SW 3.7 km/h 3.7 km/h 82% 0 mm WeatherDisplay:10.37 W/m2 BKN
08:32 -1 °C -3.8 °C 1023.2 hPa SW 5.6 km/h 5.6 km/h 81% 0 mm WeatherDisplay:10.37 W/m2 CLR
08:37 -0.9 °C -3.8 °C 1022.9 hPa SW 5.6 km/h 5.6 km/h 81% 0 mm WeatherDisplay:10.37 W/m2 CLR
08:42 -0.9 °C -3.7 °C 1023.2 hPa West 5.6 km/h 5.6 km/h 81% 0 mm WeatherDisplay:10.37 W/m2 CLR
08:52 -0.8 °C -3.4 °C 1022.9 hPa WSW 5.6 km/h 5.6 km/h 82% 0 mm WeatherDisplay:10.37 W/m2 CLR
08:57 -0.7 °C -3.6 °C 1022.9 hPa WSW 5.6 km/h 5.6 km/h 81% 0 mm WeatherDisplay:10.37 W/m2 CLR
09:02 -0.7 °C -3.5 °C 1023.2 hPa WSW 5.6 km/h 5.6 km/h 81% 0 mm WeatherDisplay:10.37 W/m2 CLR
09:07 -0.6 °C -3.3 °C 1023.2 hPa WSW 5.6 km/h 5.6 km/h 82% 0 mm WeatherDisplay:10.37 W/m2 CLR
09:17 -0.4 °C -3.3 °C 1023.2 hPa WSW 9.3 km/h 9.3 km/h 81% 0 mm WeatherDisplay:10.37 W/m2 CLR
09:22 -0.3 °C -3.2 °C 1023.2 hPa West 9.3 km/h 9.3 km/h 81% 0 mm WeatherDisplay:10.37 W/m2 CLR
09:32 -0.1 °C -2.9 °C 1023.2 hPa SSW 9.3 km/h 9.3 km/h 81% 0 mm WeatherDisplay:10.37 W/m2 CLR
09:37 0.1 °C -2.8 °C 1023.2 hPa WSW 7.4 km/h 7.4 km/h 81% 0 mm WeatherDisplay:10.37 W/m2 CLR
09:42 0.3 °C -2.7 °C 1023.2 hPa SW 9.3 km/h 9.3 km/h 80% 0 mm WeatherDisplay:10.37 W/m2 CLR
09:47 0.6 °C -2.7 °C 1023.2 hPa West 9.3 km/h 9.3 km/h 79% 0 mm WeatherDisplay:10.37 W/m2 CLR
09:52 0.8 °C -2.4 °C 1023.6 hPa SW 11.1 km/h 11.1 km/h 79% 0 mm WeatherDisplay:10.37 W/m2 CLR
09:57 1 °C -2.4 °C 1023.9 hPa SSW 11.3 km/h 11.3 km/h 78% 0 mm WeatherDisplay:10.37 W/m2 CLR
10:07 1.4 °C -2.5 °C 1023.9 hPa West 11.1 km/h 11.1 km/h 75% 0 mm WeatherDisplay:10.37 W/m2 CLR
10:12 1.4 °C -2.7 °C 1023.9 hPa WSW 13 km/h 13 km/h 74% 0 mm WeatherDisplay:10.37 W/m2 CLR
10:22 1.6 °C -2.4 °C 1023.9 hPa WSW 14.8 km/h 14.8 km/h 75% 0 mm WeatherDisplay:10.37 W/m2 CLR
10:27 1.7 °C -2.3 °C 1023.9 hPa West 11.1 km/h 11.1 km/h 75% 0 mm WeatherDisplay:10.37 W/m2 CLR
10:37 1.7 °C -2.8 °C 1023.6 hPa WSW 11.3 km/h 11.3 km/h 72% 0 mm WeatherDisplay:10.37 W/m2 CLR
10:47 1.7 °C -3.1 °C 1023.6 hPa West 14.8 km/h 14.8 km/h 71% 0 mm WeatherDisplay:10.37 W/m2 CLR
10:52 1.7 °C -3.1 °C 1023.6 hPa WSW 16.7 km/h 16.7 km/h 71% 0 mm WeatherDisplay:10.37 W/m2 CLR
11:12 2.2 °C -2.7 °C 1023.6 hPa SW 12.9 km/h 12.9 km/h 70% 0 mm WeatherDisplay:10.37 W/m2 CLR
11:17 2.4 °C -2.3 °C 1023.6 hPa WSW 9.3 km/h 9.3 km/h 71% 0 mm WeatherDisplay:10.37 W/m2 CLR
11:27 2.7 °C -2.4 °C 1022.9 hPa WSW 16.7 km/h 16.7 km/h 69% 0 mm WeatherDisplay:10.37 W/m2 CLR
11:32 2.6 °C -2.5 °C 1022.9 hPa SW 13 km/h 13 km/h 69% 0 mm WeatherDisplay:10.37 W/m2 CLR
11:37 2.9 °C -2.2 °C 1022.9 hPa SW 11.1 km/h 11.1 km/h 69% 0 mm WeatherDisplay:10.37 W/m2 CLR
11:42 3.3 °C -2.3 °C 1022.9 hPa West 11.1 km/h 11.1 km/h 67% 0 mm WeatherDisplay:10.37 W/m2 CLR
11:47 3.3 °C -2.7 °C 1022.6 hPa WSW 11.1 km/h 11.1 km/h 65% 0 mm WeatherDisplay:10.37 W/m2 CLR
11:52 3.4 °C -2.2 °C 1022.9 hPa West 13 km/h 13 km/h 67% 0 mm WeatherDisplay:10.37 W/m2 CLR
11:57 3.7 °C -2.5 °C 1022.6 hPa SSW 13 km/h 13 km/h 64% 0 mm WeatherDisplay:10.37 W/m2 CLR
12:02 3.7 °C -3.4 °C 1022.6 hPa WSW 13 km/h 13 km/h 60% 0 mm WeatherDisplay:10.37 W/m2 CLR
12:07 3.7 °C -2.9 °C 1022.2 hPa West 16.7 km/h 16.7 km/h 62% 0 mm WeatherDisplay:10.37 W/m2 CLR
12:12 3.7 °C -2.7 °C 1022.2 hPa WSW 16.7 km/h 16.7 km/h 63% 0 mm WeatherDisplay:10.37 W/m2 CLR
12:17 3.9 °C -2.9 °C 1022.2 hPa SW 18.5 km/h 18.5 km/h 61% 0 mm WeatherDisplay:10.37 W/m2 CLR
12:22 4.5 °C -2.8 °C 1021.9 hPa SW 16.7 km/h 16.7 km/h 59% 0 mm WeatherDisplay:10.37 W/m2 CLR
12:27 4.6 °C -2.8 °C 1021.9 hPa SW 16.7 km/h 16.7 km/h 59% 0 mm WeatherDisplay:10.37 W/m2 CLR
12:32 4.6 °C -2.8 °C 1021.6 hPa SSW 18.5 km/h 18.5 km/h 59% 0 mm WeatherDisplay:10.37 W/m2 CLR
12:37 4.6 °C -3 °C 1021.6 hPa WSW 16.7 km/h 16.7 km/h 58% 0 mm WeatherDisplay:10.37 W/m2 CLR
12:42 4.9 °C -2.7 °C 1021.6 hPa WSW 13 km/h 13 km/h 58% 0 mm WeatherDisplay:10.37 W/m2 CLR
12:47 4.7 °C -3.4 °C 1021.6 hPa SW 16.7 km/h 16.7 km/h 56% 0 mm WeatherDisplay:10.37 W/m2 CLR
12:52 4.6 °C -2.9 °C 1021.6 hPa WSW 14.8 km/h 14.8 km/h 58% 0 mm WeatherDisplay:10.37 W/m2 CLR
12:57 4.8 °C -3.3 °C 1021.2 hPa SW 12.9 km/h 12.9 km/h 56% 0 mm WeatherDisplay:10.37 W/m2 SCT
13:12 4.8 °C -3.7 °C 1020.9 hPa SSW 18.5 km/h 18.5 km/h 54% 0 mm WeatherDisplay:10.37 W/m2 SCT
13:22 4.3 °C -4.2 °C 1020.9 hPa West 20.4 km/h 20.4 km/h 54% 0 mm WeatherDisplay:10.37 W/m2 SCT
13:27 4.2 °C -3.8 °C 1020.9 hPa WSW 14.8 km/h 14.8 km/h 56% 0 mm WeatherDisplay:10.37 W/m2 SCT
13:32 4.3 °C -3.9 °C 1021.2 hPa WSW 16.1 km/h 16.1 km/h 55% 0 mm WeatherDisplay:10.37 W/m2 SCT
13:37 4.7 °C -3.6 °C 1020.9 hPa West 16.7 km/h 16.7 km/h 55% 0 mm WeatherDisplay:10.37 W/m2 SCT
13:42 4.9 °C -3.7 °C 1020.9 hPa West 11.1 km/h 11.1 km/h 54% 0 mm WeatherDisplay:10.37 W/m2 SCT
13:47 5.4 °C -3.7 °C 1020.9 hPa WSW 11.3 km/h 11.3 km/h 52% 0 mm WeatherDisplay:10.37 W/m2 SCT
13:57 5.6 °C -3.2 °C 1020.9 hPa SW 13 km/h 13 km/h 53% 0 mm WeatherDisplay:10.37 W/m2 SCT
14:02 5.7 °C -3.9 °C 1020.5 hPa WSW 18.5 km/h 18.5 km/h 50% 0 mm WeatherDisplay:10.37 W/m2 SCT
14:07 5.9 °C -3.4 °C 1020.5 hPa SW 13 km/h 13 km/h 51% 0 mm WeatherDisplay:10.37 W/m2 SCT
14:17 5.8 °C -3.8 °C 1020.5 hPa SSW 14.8 km/h 14.8 km/h 50% 0 mm WeatherDisplay:10.37 W/m2 BKN
14:22 5.9 °C -3.8 °C 1020.5 hPa WSW 14.8 km/h 14.8 km/h 50% 0 mm WeatherDisplay:10.37 W/m2 BKN
14:27 5.9 °C -4.3 °C 1020.2 hPa SSW 19.3 km/h 19.3 km/h 48% 0 mm WeatherDisplay:10.37 W/m2 BKN
14:32 5.6 °C -4.6 °C 1019.9 hPa SW 18.5 km/h 18.5 km/h 48% 0 mm WeatherDisplay:10.37 W/m2 BKN
14:37 5.6 °C -4.6 °C 1020.2 hPa WSW 18.5 km/h 18.5 km/h 48% 0 mm WeatherDisplay:10.37 W/m2 BKN
14:42 5.5 °C -4.4 °C 1020.2 hPa West 18.5 km/h 18.5 km/h 49% 0 mm WeatherDisplay:10.37 W/m2 BKN
14:47 5.6 °C -4.3 °C 1020.2 hPa SSE 17.7 km/h 17.7 km/h 49% 0 mm WeatherDisplay:10.37 W/m2 BKN
15:02 5.3 °C -4.9 °C 1020.2 hPa WSW 16.7 km/h 16.7 km/h 48% 0 mm WeatherDisplay:10.37 W/m2 BKN
15:07 5.3 °C -4.9 °C 1020.5 hPa West 16.7 km/h 16.7 km/h 48% 0 mm WeatherDisplay:10.37 W/m2 SCT
15:12 5.3 °C -5.1 °C 1020.9 hPa SW 19.3 km/h 19.3 km/h 47% 0 mm WeatherDisplay:10.37 W/m2 SCT
15:37 4.8 °C -5.1 °C 1020.5 hPa SW 11.1 km/h 11.1 km/h 49% 0 mm WeatherDisplay:10.37 W/m2 SCT
15:42 4.8 °C -5.1 °C 1020.5 hPa WSW 16.7 km/h 16.7 km/h 49% 0 mm WeatherDisplay:10.37 W/m2 SCT
15:47 4.8 °C -5.1 °C 1020.2 hPa SSW 16.7 km/h 16.7 km/h 49% 0 mm WeatherDisplay:10.37 W/m2 SCT
15:52 4.8 °C -5 °C 1020.2 hPa West 14.8 km/h 14.8 km/h 49% 0 mm WeatherDisplay:10.37 W/m2 SCT
15:57 4.8 °C -5.3 °C 1020.2 hPa SW 16.7 km/h 16.7 km/h 48% 0 mm WeatherDisplay:10.37 W/m2 SCT
16:02 4.8 °C -5 °C 1020.2 hPa WSW 16.7 km/h 16.7 km/h 49% 0 mm WeatherDisplay:10.37 W/m2 SCT
16:07 4.8 °C -5.1 °C 1020.5 hPa WSW 16.7 km/h 16.7 km/h 49% 0 mm WeatherDisplay:10.37 W/m2 BKN
16:12 4.7 °C -4.8 °C 1020.5 hPa West 18.5 km/h 18.5 km/h 50% 0 mm WeatherDisplay:10.37 W/m2 BKN
16:17 4.6 °C -5 °C 1020.5 hPa SSW 14.8 km/h 14.8 km/h 50% 0 mm WeatherDisplay:10.37 W/m2 BKN
16:22 4.4 °C -5.1 °C 1020.5 hPa SW 13 km/h 13 km/h 50% 0 mm WeatherDisplay:10.37 W/m2 BKN
16:27 4.3 °C -4.9 °C 1020.5 hPa West 11.1 km/h 11.1 km/h 51% 0 mm WeatherDisplay:10.37 W/m2 BKN
16:37 4.2 °C -5.1 °C 1020.5 hPa SW 9.3 km/h 9.3 km/h 51% 0 mm WeatherDisplay:10.37 W/m2 BKN
16:47 4 °C -4.7 °C 1020.2 hPa WSW 7.4 km/h 7.4 km/h 53% 0 mm WeatherDisplay:10.37 W/m2 BKN
16:52 3.9 °C -4.8 °C 1020.2 hPa SW 5.6 km/h 5.6 km/h 53% 0 mm WeatherDisplay:10.37 W/m2 BKN
17:07 3.7 °C -4.7 °C 1020.2 hPa WSW 7.4 km/h 7.4 km/h 54% 0 mm WeatherDisplay:10.37 W/m2 BKN
17:12 3.7 °C -4.8 °C 1020.5 hPa WSW 7.4 km/h 7.4 km/h 54% 0 mm WeatherDisplay:10.37 W/m2 BKN
17:27 3.4 °C -4.6 °C 1020.5 hPa WSW 5.6 km/h 5.6 km/h 56% 0 mm WeatherDisplay:10.37 W/m2 BKN
17:32 3.3 °C -4.6 °C 1020.5 hPa WSW 5.6 km/h 5.6 km/h 56% 0 mm WeatherDisplay:10.37 W/m2 BKN
17:42 3.2 °C -4.5 °C 1020.5 hPa WSW 3.7 km/h 3.7 km/h 57% 0 mm WeatherDisplay:10.37 W/m2 BKN
17:47 3.2 °C -4.6 °C 1020.5 hPa WSW 3.7 km/h 3.7 km/h 57% 0 mm WeatherDisplay:10.37 W/m2 BKN
17:52 3.1 °C -4.4 °C 1020.5 hPa WSW 3.7 km/h 3.7 km/h 58% 0 mm WeatherDisplay:10.37 W/m2 BKN
17:57 3 °C -4.4 °C 1020.9 hPa WSW 3.7 km/h 3.7 km/h 58% 0 mm WeatherDisplay:10.37 W/m2 BKN
18:07 2.8 °C -4.4 °C 1020.9 hPa SW 3.7 km/h 3.7 km/h 59% 0 mm WeatherDisplay:10.37 W/m2 BKN
18:12 2.7 °C -4.3 °C 1020.9 hPa SW 1.9 km/h 1.9 km/h 60% 0 mm WeatherDisplay:10.37 W/m2 BKN
18:17 2.6 °C -4.2 °C 1020.9 hPa SW 1.9 km/h   61% 0 mm WeatherDisplay:10.37 W/m2 BKN
18:22 2.4 °C -4.3 °C 1021.2 hPa Calm     61% 0 mm WeatherDisplay:10.37 W/m2 BKN
18:27 2.3 °C -4.3 °C 1021.2 hPa Calm     62% 0 mm WeatherDisplay:10.37 W/m2 BKN
18:32 2.2 °C -4.1 °C 1021.2 hPa Calm     63% 0 mm WeatherDisplay:10.37 W/m2 BKN
18:37 2.1 °C -4.2 °C 1020.9 hPa Calm     63% 0 mm WeatherDisplay:10.37 W/m2 BKN
18:43 2 °C -4.1 °C 1021.2 hPa Calm     64% 0 mm WeatherDisplay:10.37 W/m2 BKN
18:48 1.8 °C -4.1 °C 1021.2 hPa Calm     65% 0 mm WeatherDisplay:10.37 W/m2 SCT
18:53 1.8 °C -4.1 °C 1021.2 hPa Calm     65% 0 mm WeatherDisplay:10.37 W/m2 SCT
18:58 1.6 °C -4.3 °C 1020.9 hPa Calm     65% 0 mm WeatherDisplay:10.37 W/m2 SCT
19:18 1.3 °C -4 °C 1021.2 hPa Calm     68% 0 mm WeatherDisplay:10.37 W/m2 SCT
19:33 1.1 °C -3.6 °C 1021.2 hPa Calm     71% 0 mm WeatherDisplay:10.37 W/m2 SCT
19:38 1 °C -3.9 °C 1021.2 hPa Calm     70% 0 mm WeatherDisplay:10.37 W/m2 SCT
19:48 0.9 °C -3.3 °C 1021.2 hPa Calm     73% 0 mm WeatherDisplay:10.37 W/m2 SCT
19:53 0.9 °C -3.4 °C 1021.2 hPa Calm     73% 0 mm WeatherDisplay:10.37 W/m2 SCT
19:58 0.8 °C -3.4 °C 1021.2 hPa Calm     73% 0 mm WeatherDisplay:10.37 W/m2 SCT
20:03 0.8 °C -3.4 °C 1021.2 hPa Calm     73% 0 mm WeatherDisplay:10.37 W/m2 SCT
20:18 0.9 °C -3.6 °C 1020.9 hPa SW 3.2 km/h 3.2 km/h 72% 0 mm WeatherDisplay:10.37 W/m2 SCT
20:23 1.2 °C -3.7 °C 1020.9 hPa SW 5.6 km/h 5.6 km/h 70% 0 mm WeatherDisplay:10.37 W/m2 BKN
20:28 1.3 °C -3.6 °C 1020.9 hPa SW 5.6 km/h 5.6 km/h 70% 0 mm WeatherDisplay:10.37 W/m2 BKN
20:33 1.4 °C -3.6 °C 1020.9 hPa SW 3.7 km/h 3.7 km/h 69% 0 mm WeatherDisplay:10.37 W/m2 BKN
20:38 1.6 °C -3.7 °C 1020.9 hPa SW 5.6 km/h 5.6 km/h 68% 0 mm WeatherDisplay:10.37 W/m2 BKN
20:43 1.7 °C -3.6 °C 1020.9 hPa WSW 6.4 km/h 6.4 km/h 68% 0 mm WeatherDisplay:10.37 W/m2 BKN
20:48 1.8 °C -3.7 °C 1020.9 hPa WSW 5.6 km/h 5.6 km/h 67% 0 mm WeatherDisplay:10.37 W/m2 BKN
20:53 1.7 °C -3.6 °C 1020.9 hPa WSW 3.7 km/h 3.7 km/h 68% 0 mm WeatherDisplay:10.37 W/m2 SCT
20:58 1.7 °C -3.4 °C 1020.9 hPa WSW 3.7 km/h 3.7 km/h 69% 0 mm WeatherDisplay:10.37 W/m2 SCT
21:03 1.3 °C -3.6 °C 1020.9 hPa WSW 1.9 km/h 1.9 km/h 70% 0 mm WeatherDisplay:10.37 W/m2 SCT
21:08 1.1 °C -3.8 °C 1020.9 hPa Calm     70% 0 mm WeatherDisplay:10.37 W/m2 SCT
21:18 0.7 °C -3.6 °C 1020.5 hPa WSW 1.9 km/h   73% 0 mm WeatherDisplay:10.37 W/m2 SCT
21:23 0.7 °C -3.6 °C 1020.9 hPa WSW 1.9 km/h   73% 0 mm WeatherDisplay:10.37 W/m2 SCT
21:28 0.5 °C -3.6 °C 1020.9 hPa Calm     74% 0 mm WeatherDisplay:10.37 W/m2 SCT
21:33 0.4 °C -3.6 °C 1020.9 hPa WSW 1.9 km/h   75% 0 mm WeatherDisplay:10.37 W/m2 SCT
21:38 0.3 °C -3.6 °C 1020.5 hPa WSW 1.9 km/h   75% 0 mm WeatherDisplay:10.37 W/m2 SCT
21:43 0.2 °C -3.7 °C 1020.5 hPa Calm     75% 0 mm WeatherDisplay:10.37 W/m2 SCT
21:48 0.2 °C -3.7 °C 1020.5 hPa Calm     75% 0 mm WeatherDisplay:10.37 W/m2 SCT
21:53 0.1 °C -3.6 °C 1020.5 hPa Calm     76% 0 mm WeatherDisplay:10.37 W/m2 SCT
21:58 0.1 °C -3.7 °C 1020.5 hPa Calm     76% 0 mm WeatherDisplay:10.37 W/m2 SCT
22:03 0 °C -3.6 °C 1020.5 hPa Calm     77% 0 mm WeatherDisplay:10.37 W/m2 SCT
22:08 -0.1 °C -3.4 °C 1020.5 hPa Calm     78% 0 mm WeatherDisplay:10.37 W/m2 SCT
22:14 -0.1 °C -3.7 °C 1020.5 hPa Calm     77% 0 mm WeatherDisplay:10.37 W/m2 SCT
22:19 -0.2 °C -3.6 °C 1020.5 hPa Calm     78% 0 mm WeatherDisplay:10.37 W/m2 SCT
22:22 -0.1 °C -3.7 °C 1020.5 hPa Calm     77% 0 mm WeatherDisplay:10.37 W/m2 SCT
22:23 -0.1 °C -3.7 °C 1020.5 hPa Calm     77% 0 mm WeatherDisplay:10.37 W/m2 SCT
22:38 -0.2 °C -3.4 °C 1020.9 hPa Calm     79% 0 mm WeatherDisplay:10.37 W/m2 SCT
22:48 -0.3 °C -3.3 °C 1020.9 hPa Calm     80% 0 mm WeatherDisplay:10.37 W/m2 SCT
22:53 -0.3 °C -3.4 °C 1020.9 hPa Calm     80% 0 mm WeatherDisplay:10.37 W/m2 SCT
22:58 -0.3 °C -3.2 °C 1020.9 hPa Calm     81% 0 mm WeatherDisplay:10.37 W/m2 SCT
23:03 -0.4 °C -3.1 °C 1021.2 hPa Calm     82% 0 mm WeatherDisplay:10.37 W/m2 SCT
23:09 -0.4 °C -3 °C 1020.9 hPa Calm     83% 0 mm WeatherDisplay:10.37 W/m2 SCT
23:19 -0.6 °C -3.2 °C 1021.2 hPa Calm     83% 0 mm WeatherDisplay:10.37 W/m2 SCT
23:29 -0.8 °C -3.3 °C 1020.9 hPa Calm     83% 0 mm WeatherDisplay:10.37 W/m2 SCT
23:50 -1.2 °C -3.7 °C 1020.9 hPa Calm     83% 0 mm WeatherDisplay:10.37 W/m2 SCT
23:55 -1.2 °C -3.7 °C 1020.9 hPa Calm     83% 0 mm WeatherDisplay:10.37 W/m2 SCT
Smyth Weather
Compliments of Weather Underground - 2.75 mb